Time;durP1;ratioP1;P1;durP2;ratioP2;P2;SDS_P1;SDS_P2;PMS_P1;PMS_P2;Temp;Humidity;BMP_temperature;BMP_pressure;BME280_temperature;BME280_humidity;BME280_pressure;Samples;Min_cycle;Max_cycle;Signal;HPM_P1;HPM_P2
2021/05/05 00:00:05;;;;;;;5.93;3.20;;;;;;;10.06;100.00;94814.50;1023774;29;20047;-48
2021/05/05 00:00:36;;;;;;;5.47;3.13;;;;;;;10.03;100.00;94816.56;1023717;29;20270;-50
2021/05/05 00:01:06;;;;;;;6.78;3.17;;;;;;;10.02;100.00;94810.50;1023892;29;20614;-48
2021/05/05 00:01:50;;;;;;;4.43;3.10;;;;;;;10.02;100.00;94820.13;1024404;28;20507;-48
2021/05/05 00:02:21;;;;;;;5.35;3.58;;;;;;;9.97;100.00;94812.69;1029732;28;20015;-48
2021/05/05 00:02:52;;;;;;;3.80;2.85;;;;;;;9.98;100.00;94808.25;1031972;28;20255;-47
2021/05/05 00:03:24;;;;;;;4.70;3.30;;;;;;;9.92;100.00;94818.28;1027766;28;20015;-50
2021/05/05 00:03:54;;;;;;;4.80;3.22;;;;;;;9.93;100.00;94819.13;1023473;28;20366;-49
2021/05/05 00:04:26;;;;;;;4.35;2.83;;;;;;;9.93;100.00;94816.53;1031451;28;20241;-50
2021/05/05 00:04:57;;;;;;;5.00;3.40;;;;;;;9.94;100.00;94815.53;1031267;28;20246;-49
2021/05/05 00:05:28;;;;;;;6.20;3.78;;;;;;;9.91;100.00;94814.03;1027756;28;20282;-49
2021/05/05 00:05:59;;;;;;;4.57;3.20;;;;;;;9.94;100.00;94818.16;1027645;28;20070;-50
2021/05/05 00:06:30;;;;;;;4.72;2.80;;;;;;;9.97;100.00;94812.69;1027848;28;20018;-49
2021/05/05 00:07:00;;;;;;;6.38;2.90;;;;;;;9.94;100.00;94815.53;1027804;28;20011;-48
2021/05/05 00:07:31;;;;;;;5.35;3.30;;;;;;;9.95;100.00;94809.38;1031777;28;20014;-48
2021/05/05 00:08:03;;;;;;;4.63;3.20;;;;;;;9.96;100.00;94808.38;1023675;29;20023;-49
2021/05/05 00:08:34;;;;;;;4.90;3.20;;;;;;;9.94;100.00;94797.22;1031807;28;20148;-47
2021/05/05 00:09:06;;;;;;;5.00;3.15;;;;;;;9.93;100.00;94801.66;1027782;28;20624;-50
2021/05/05 00:09:37;;;;;;;6.65;3.08;;;;;;;9.96;100.00;94818.03;1023813;29;20333;-49
2021/05/05 00:10:09;;;;;;;4.88;3.10;;;;;;;9.93;100.00;94796.41;1035723;28;20808;-50
2021/05/05 00:10:40;;;;;;;5.32;3.08;;;;;;;9.93;100.00;94812.09;1031776;28;20388;-47
2021/05/05 00:11:11;;;;;;;4.50;3.28;;;;;;;9.92;100.00;94810.44;1023864;29;20263;-49
2021/05/05 00:11:42;;;;;;;4.00;3.03;;;;;;;9.91;100.00;94807.97;1027770;28;20532;-49
2021/05/05 00:12:13;;;;;;;4.63;3.05;;;;;;;9.90;100.00;94791.44;1031660;28;20293;-49
2021/05/05 00:12:45;;;;;;;5.47;3.20;;;;;;;9.88;100.00;94798.59;1027756;28;20282;-49
2021/05/05 00:13:16;;;;;;;4.95;3.50;;;;;;;9.84;100.00;94797.19;1027863;28;20339;-47
2021/05/05 00:13:47;;;;;;;7.50;4.25;;;;;;;9.80;100.00;94797.59;1027582;28;20248;-48
2021/05/05 00:14:18;;;;;;;4.93;3.22;;;;;;;9.75;100.00;94800.59;1031752;28;20029;-48
2021/05/05 00:14:49;;;;;;;5.07;3.00;;;;;;;9.79;100.00;94809.03;1027705;28;20007;-49
2021/05/05 00:15:22;;;;;;;4.53;2.80;;;;;;;9.77;100.00;94797.88;1031785;28;20266;-49
2021/05/05 00:15:53;;;;;;;4.95;3.20;;;;;;;9.74;100.00;94793.69;1031767;28;20022;-48
2021/05/05 00:16:23;;;;;;;4.90;3.50;;;;;;;9.74;100.00;94801.53;1023624;29;20292;-47
2021/05/05 00:16:55;;;;;;;5.35;3.20;;;;;;;9.72;100.00;94808.69;1023720;29;20053;-49
2021/05/05 00:17:26;;;;;;;5.05;3.03;;;;;;;9.73;100.00;94802.53;1023841;28;20066;-49
2021/05/05 00:17:57;;;;;;;6.00;3.70;;;;;;;9.69;100.00;94801.94;1027766;28;20254;-49
2021/05/05 00:18:27;;;;;;;5.65;3.58;;;;;;;9.66;100.00;94799.59;1027643;28;20778;-49
2021/05/05 00:18:58;;;;;;;6.25;3.10;;;;;;;9.66;100.00;94804.00;1027821;28;20051;-48
2021/05/05 00:19:29;;;;;;;5.10;3.28;;;;;;;9.65;100.00;94797.94;1027816;28;20063;-49
2021/05/05 00:20:00;;;;;;;4.65;2.95;;;;;;;9.65;100.00;94811.03;1028256;28;20093;-48
2021/05/05 00:20:31;;;;;;;6.70;3.22;;;;;;;9.64;100.00;94803.31;1028502;28;20306;-48
2021/05/05 00:21:04;;;;;;;4.85;3.00;;;;;;;9.68;100.00;94810.75;1036897;28;20026;-49
2021/05/05 00:21:35;;;;;;;5.07;3.35;;;;;;;9.68;100.00;94802.91;1037158;28;20438;-48
2021/05/05 00:22:07;;;;;;;5.63;2.90;;;;;;;9.64;100.00;94796.28;1034337;28;20823;-48
2021/05/05 00:22:38;;;;;;;4.60;2.95;;;;;;;9.66;100.00;94796.97;1035037;28;20253;-49
2021/05/05 00:23:09;;;;;;;6.22;3.35;;;;;;;9.66;100.00;94799.59;1035174;28;20565;-47
2021/05/05 00:23:40;;;;;;;4.25;2.90;;;;;;;9.67;100.00;94796.03;1030128;28;20050;-49
2021/05/05 00:24:11;;;;;;;4.80;2.88;;;;;;;9.65;100.00;94794.50;1035754;28;20014;-49
2021/05/05 00:24:42;;;;;;;5.25;3.65;;;;;;;9.66;100.00;94798.78;1031765;28;20025;-49
2021/05/05 00:25:14;;;;;;;4.63;3.00;;;;;;;9.66;100.00;94796.97;1030468;28;20351;-49
2021/05/05 00:25:45;;;;;;;5.47;3.30;;;;;;;9.66;100.00;94793.53;1030608;28;20019;-49
2021/05/05 00:26:16;;;;;;;5.22;3.00;;;;;;;9.60;100.00;94783.59;1034628;28;20245;-50
2021/05/05 00:26:47;;;;;;;5.82;3.53;;;;;;;9.66;100.00;94794.34;1030604;28;20293;-51
2021/05/05 00:27:18;;;;;;;5.05;3.15;;;;;;;9.64;100.00;94791.06;1039120;28;20022;-50
2021/05/05 00:27:49;;;;;;;4.88;2.95;;;;;;;9.63;100.00;94791.19;1034589;28;20253;-48
2021/05/05 00:28:20;;;;;;;5.30;3.50;;;;;;;9.62;100.00;94789.53;1030908;28;20030;-49
2021/05/05 00:28:51;;;;;;;5.10;3.28;;;;;;;9.62;100.00;94786.91;1038655;28;20288;-48
2021/05/05 00:29:22;;;;;;;5.05;3.20;;;;;;;9.60;100.00;94788.84;1035245;28;20342;-48
2021/05/05 00:29:53;;;;;;;5.70;3.38;;;;;;;9.61;100.00;94791.34;1033430;28;20349;-47
2021/05/05 00:30:24;;;;;;;4.78;3.40;;;;;;;9.60;100.00;94789.66;1031771;28;20053;-48
2021/05/05 00:30:55;;;;;;;4.75;3.08;;;;;;;9.56;100.00;94795.28;1031779;28;20014;-48
2021/05/05 00:31:26;;;;;;;5.97;3.42;;;;;;;9.60;100.00;94794.88;1031811;28;20065;-48
2021/05/05 00:31:58;;;;;;;5.72;3.03;;;;;;;9.61;100.00;94793.09;1031583;28;20253;-48
2021/05/05 00:32:29;;;;;;;5.10;3.47;;;;;;;9.60;100.00;94789.66;1027676;28;20026;-48
2021/05/05 00:33:00;;;;;;;5.38;2.88;;;;;;;9.60;100.00;94791.47;1027685;28;20261;-51
2021/05/05 00:33:32;;;;;;;5.55;3.22;;;;;;;9.58;100.00;94786.34;1035677;28;20770;-47
2021/05/05 00:34:03;;;;;;;4.55;2.83;;;;;;;9.58;100.00;94788.97;1031489;28;20315;-49
2021/05/05 00:34:34;;;;;;;6.38;3.63;;;;;;;9.54;100.00;94783.16;1031685;28;20698;-50
2021/05/05 00:35:06;;;;;;;4.38;3.03;;;;;;;9.53;100.00;94784.13;1031614;28;20280;-49
2021/05/05 00:35:37;;;;;;;6.85;3.38;;;;;;;9.54;100.00;94782.34;1027686;28;20144;-48
2021/05/05 00:36:08;;;;;;;6.03;3.10;;;;;;;9.53;100.00;94785.91;1031526;28;20257;-49
2021/05/05 00:36:39;;;;;;;7.78;3.75;;;;;;;9.53;100.00;94786.75;1023579;29;20251;-49
2021/05/05 00:37:10;;;;;;;5.13;3.33;;;;;;;9.54;100.00;94772.69;1031682;28;20396;-51
2021/05/05 00:37:41;;;;;;;3.65;2.78;;;;;;;9.49;100.00;94776.66;1031683;28;20349;-48
2021/05/05 00:38:12;;;;;;;5.63;2.95;;;;;;;9.53;100.00;94788.53;1031566;28;20109;-48
2021/05/05 00:38:45;;;;;;;4.60;3.30;;;;;;;9.51;100.00;94782.59;1027661;28;20333;-49
2021/05/05 00:39:17;;;;;;;4.75;2.70;;;;;;;9.49;100.00;94777.50;1027623;28;20834;-50
2021/05/05 00:39:50;;;;;;;6.07;3.25;;;;;;;9.51;100.00;94775.56;1023737;29;20262;-49
2021/05/05 00:40:21;;;;;;;4.88;3.30;;;;;;;9.51;100.00;94778.19;1027467;28;20250;-49
2021/05/05 00:40:52;;;;;;;4.78;3.42;;;;;;;9.49;100.00;94777.50;1023768;29;20533;-49
2021/05/05 00:41:23;;;;;;;4.60;3.40;;;;;;;9.47;100.00;94774.19;1031715;28;20270;-49
2021/05/05 00:41:55;;;;;;;4.90;2.75;;;;;;;9.48;100.00;94777.66;1027735;28;20265;-51
2021/05/05 00:42:26;;;;;;;4.40;2.80;;;;;;;9.47;100.00;94770.75;1031613;28;20276;-50
2021/05/05 00:42:56;;;;;;;4.32;3.25;;;;;;;9.46;100.00;94771.69;1027671;28;20636;-49
2021/05/05 00:43:27;;;;;;;4.15;2.90;;;;;;;9.46;100.00;94764.69;1035601;28;20116;-50
2021/05/05 00:43:58;;;;;;;5.05;3.05;;;;;;;9.45;100.00;94767.44;1027602;28;20139;-50
2021/05/05 00:44:30;;;;;;;6.32;3.13;;;;;;;9.41;100.00;94773.88;1027558;28;20079;-50
2021/05/05 00:45:03;;;;;;;7.53;3.20;;;;;;;9.39;100.00;94760.13;1027743;28;20149;-48
2021/05/05 00:45:35;;;;;;;4.35;3.10;;;;;;;9.40;100.00;94759.16;1035678;28;20641;-50
2021/05/05 00:46:07;;;;;;;5.57;3.63;;;;;;;9.36;100.00;94758.56;1031497;28;20289;-50
2021/05/05 00:46:39;;;;;;;5.40;3.50;;;;;;;9.36;100.00;94765.59;1027461;28;20626;-48
2021/05/05 00:47:10;;;;;;;5.60;2.85;;;;;;;9.36;100.00;94771.66;1027561;28;20254;-48
2021/05/05 00:47:42;;;;;;;4.65;2.88;;;;;;;9.38;100.00;94766.28;1027620;28;20752;-49
2021/05/05 00:48:12;;;;;;;5.72;2.75;;;;;;;9.38;100.00;94764.50;1027620;28;20022;-49
2021/05/05 00:48:43;;;;;;;7.07;3.55;;;;;;;9.36;100.00;94758.56;1031473;28;20292;-48
2021/05/05 00:49:15;;;;;;;4.35;2.72;;;;;;;9.36;100.00;94768.22;1027637;28;20027;-47
2021/05/05 00:49:46;;;;;;;6.07;3.10;;;;;;;9.33;100.00;94762.28;1027686;28;20061;-49
2021/05/05 00:50:17;;;;;;;4.10;3.15;;;;;;;9.33;100.00;94767.53;1023583;29;20803;-50
2021/05/05 00:50:48;;;;;;;4.28;2.70;;;;;;;9.33;100.00;94767.53;1027427;28;20041;-48
2021/05/05 00:51:19;;;;;;;5.25;3.03;;;;;;;9.34;100.00;94768.34;1027469;28;20328;-49
2021/05/05 00:51:50;;;;;;;5.43;3.00;;;;;;;9.33;100.00;94767.53;1031549;28;20376;-48
2021/05/05 00:52:21;;;;;;;4.78;2.65;;;;;;;9.35;100.00;94767.41;1031570;28;20026;-50
2021/05/05 00:52:52;;;;;;;5.03;2.85;;;;;;;9.34;100.00;94770.94;1027552;28;20344;-48
2021/05/05 00:53:23;;;;;;;4.75;2.80;;;;;;;9.32;100.00;94773.69;1035648;28;20026;-49
2021/05/05 00:53:54;;;;;;;4.07;2.72;;;;;;;9.32;100.00;94775.47;1031490;28;20018;-49
2021/05/05 00:54:25;;;;;;;5.07;3.33;;;;;;;9.31;100.00;94768.63;1027619;28;20361;-49
2021/05/05 00:54:56;;;;;;;4.72;3.00;;;;;;;9.26;100.00;94773.41;1031401;28;20121;-49
2021/05/05 00:55:27;;;;;;;4.43;2.53;;;;;;;9.29;100.00;94771.34;1027565;28;20258;-51
2021/05/05 00:55:58;;;;;;;4.18;2.60;;;;;;;9.31;100.00;94774.66;1031568;28;20050;-49
2021/05/05 00:56:30;;;;;;;3.97;2.70;;;;;;;9.28;100.00;94769.69;1027673;28;20018;-49
2021/05/05 00:57:01;;;;;;;4.10;2.60;;;;;;;9.23;100.00;94766.63;1031500;28;20246;-48
2021/05/05 00:57:32;;;;;;;4.40;3.08;;;;;;;9.25;100.00;94771.72;1031737;28;20762;-49
2021/05/05 00:58:02;;;;;;;5.97;2.90;;;;;;;9.25;100.00;94775.19;1027628;28;20299;-49
2021/05/05 00:58:34;;;;;;;5.22;2.95;;;;;;;9.23;100.00;94765.78;1035785;28;20022;-47
2021/05/05 00:59:06;;;;;;;4.97;2.72;;;;;;;9.22;100.00;94774.63;1031538;28;20477;-49
2021/05/05 00:59:36;;;;;;;5.13;3.05;;;;;;;9.21;100.00;94775.56;1031626;28;20380;-47
2021/05/05 01:00:08;;;;;;;4.10;2.88;;;;;;;9.18;100.00;94774.03;1027517;28;20734;-50
2021/05/05 01:00:40;;;;;;;5.65;2.92;;;;;;;9.15;100.00;94769.88;1031515;28;20473;-48
2021/05/05 01:01:10;;;;;;;5.38;2.80;;;;;;;9.13;100.00;94779.63;1035550;28;20249;-48
2021/05/05 01:01:42;;;;;;;5.63;3.35;;;;;;;9.11;100.00;94776.31;1035699;28;20264;-48
2021/05/05 01:02:13;;;;;;;6.53;3.15;;;;;;;9.09;100.00;94780.84;1027632;28;20427;-49
2021/05/05 01:02:44;;;;;;;4.57;2.80;;;;;;;9.06;100.00;94775.88;1023622;29;20270;-48
2021/05/05 01:03:15;;;;;;;4.05;2.75;;;;;;;9.05;100.00;94774.22;1027353;28;20015;-49
2021/05/05 01:03:46;;;;;;;5.72;3.13;;;;;;;9.03;100.00;94778.75;1027451;28;20019;-48
2021/05/05 01:04:20;;;;;;;4.85;3.05;;;;;;;9.02;100.00;94771.88;1023616;29;20705;-50
2021/05/05 01:04:51;;;;;;;4.85;3.00;;;;;;;9.01;100.00;94782.44;1031616;28;20035;-48
2021/05/05 01:05:22;;;;;;;6.40;2.90;;;;;;;9.00;100.00;94778.19;1031426;28;20301;-49
2021/05/05 01:05:53;;;;;;;4.45;3.20;;;;;;;8.97;100.00;94771.41;1031653;28;20257;-48
2021/05/05 01:06:24;;;;;;;4.63;2.88;;;;;;;8.99;100.00;94777.34;1027612;28;20297;-50
2021/05/05 01:06:55;;;;;;;3.72;2.80;;;;;;;8.97;100.00;94776.63;1035695;28;20108;-48
2021/05/05 01:07:25;;;;;;;6.70;2.97;;;;;;;8.95;100.00;94770.72;1027442;28;20652;-49
2021/05/05 01:07:56;;;;;;;5.13;3.38;;;;;;;8.93;100.00;94767.41;1031659;28;20053;-48
2021/05/05 01:08:28;;;;;;;5.20;3.05;;;;;;;8.90;100.00;94763.25;1027574;28;20117;-51
2021/05/05 01:08:59;;;;;;;4.57;2.80;;;;;;;8.88;100.00;94774.81;1035692;28;20256;-51
2021/05/05 01:09:30;;;;;;;5.45;3.55;;;;;;;8.84;100.00;94770.75;1031396;28;20288;-49
2021/05/05 01:10:02;;;;;;;5.20;3.42;;;;;;;8.82;100.00;94767.47;1031653;28;20233;-50
2021/05/05 01:10:33;;;;;;;8.00;3.28;;;;;;;8.80;100.00;94770.19;1031558;28;20773;-48
2021/05/05 01:11:04;;;;;;;4.32;3.35;;;;;;;8.78;100.00;94766.06;1027702;28;20266;-49
2021/05/05 01:11:35;;;;;;;7.10;3.53;;;;;;;8.76;100.00;94766.19;1031445;28;20269;-47
2021/05/05 01:12:07;;;;;;;5.35;3.30;;;;;;;8.75;100.00;94769.75;1035598;28;20058;-50
2021/05/05 01:12:38;;;;;;;5.28;3.28;;;;;;;8.73;100.00;94762.03;1027543;28;20261;-50
2021/05/05 01:13:10;;;;;;;6.07;3.53;;;;;;;8.71;100.00;94761.34;1031533;28;20312;-49
2021/05/05 01:13:42;;;;;;;5.65;3.13;;;;;;;8.69;100.00;94768.47;1027239;28;20764;-50
2021/05/05 01:14:16;;;;;;;4.72;3.28;;;;;;;8.70;100.00;94761.47;1031728;28;20320;-47
2021/05/05 01:14:47;;;;;;;6.05;3.13;;;;;;;8.66;100.00;94758.28;1023511;28;20357;-48
2021/05/05 01:15:18;;;;;;;5.30;3.50;;;;;;;8.65;100.00;94768.84;1027593;28;20260;-50
2021/05/05 01:15:49;;;;;;;5.20;3.05;;;;;;;8.64;100.00;94767.19;1031669;28;20257;-49
2021/05/05 01:16:20;;;;;;;3.90;3.00;;;;;;;8.62;100.00;94766.50;1024734;29;20329;-51
2021/05/05 01:16:51;;;;;;;4.60;3.35;;;;;;;8.61;100.00;94760.44;1024883;29;20247;-48
2021/05/05 01:17:22;;;;;;;5.18;3.15;;;;;;;8.60;100.00;94766.63;1028907;28;20246;-51
2021/05/05 01:17:53;;;;;;;5.63;3.40;;;;;;;8.57;100.00;94769.47;1028801;28;20021;-48
2021/05/05 01:18:24;;;;;;;5.30;3.40;;;;;;;8.57;100.00;94770.28;1033001;28;20259;-47
2021/05/05 01:18:55;;;;;;;5.07;3.00;;;;;;;8.59;100.00;94777.19;1028925;28;20121;-49
2021/05/05 01:19:26;;;;;;;5.53;3.38;;;;;;;8.58;100.00;94776.38;1029040;28;20390;-50
2021/05/05 01:19:57;;;;;;;6.80;3.22;;;;;;;8.57;100.00;94774.69;1028770;28;20257;-50
2021/05/05 01:20:29;;;;;;;4.68;3.17;;;;;;;8.56;100.00;94781.69;1028894;28;20356;-49
2021/05/05 01:21:00;;;;;;;4.78;3.35;;;;;;;8.55;100.00;94776.59;1024840;29;20213;-49
2021/05/05 01:21:31;;;;;;;4.10;3.30;;;;;;;8.53;100.00;94770.69;1024927;28;20254;-48
2021/05/05 01:22:03;;;;;;;6.15;3.15;;;;;;;8.51;100.00;94767.38;1028855;28;20262;-49
2021/05/05 01:22:34;;;;;;;6.82;3.58;;;;;;;8.50;100.00;94768.31;1028983;28;20019;-48
2021/05/05 01:23:05;;;;;;;4.88;3.53;;;;;;;8.49;100.00;94769.28;1028885;28;20250;-48
2021/05/05 01:23:36;;;;;;;4.65;3.40;;;;;;;8.48;100.00;94776.25;1028840;28;20691;-49
2021/05/05 01:24:08;;;;;;;5.25;3.50;;;;;;;8.44;100.00;94768.81;1024824;28;20238;-49
2021/05/05 01:24:39;;;;;;;5.93;3.20;;;;;;;8.48;100.00;94759.78;1028988;28;20030;-48
2021/05/05 01:25:12;;;;;;;4.93;3.38;;;;;;;8.49;100.00;94762.25;1028945;28;20385;-49
2021/05/05 01:25:43;;;;;;;4.78;3.17;;;;;;;8.48;100.00;94759.78;1029007;28;20356;-47
2021/05/05 01:26:14;;;;;;;10.60;4.28;;;;;;;8.46;100.00;94767.72;1032790;28;20242;-51
2021/05/05 01:26:45;;;;;;;6.80;3.65;;;;;;;8.45;100.00;94763.47;1037064;28;20021;-48
2021/05/05 01:27:16;;;;;;;6.13;4.05;;;;;;;8.45;100.00;94760.84;1028906;28;20026;-49
2021/05/05 01:27:47;;;;;;;5.13;3.40;;;;;;;8.44;100.00;94756.56;1028807;28;20022;-50
2021/05/05 01:28:18;;;;;;;5.47;3.40;;;;;;;8.43;100.00;94754.94;1028733;28;20259;-49
2021/05/05 01:28:49;;;;;;;4.60;3.20;;;;;;;8.45;100.00;94754.81;1028496;28;20325;-49
2021/05/05 01:29:20;;;;;;;4.75;3.35;;;;;;;8.43;100.00;94764.53;1028891;28;20768;-49
2021/05/05 01:29:51;;;;;;;9.00;3.72;;;;;;;8.43;100.00;94772.34;1024899;28;20114;-50
2021/05/05 01:30:23;;;;;;;4.97;3.47;;;;;;;8.41;100.00;94767.25;1028643;28;20113;-48
2021/05/05 01:30:54;;;;;;;6.65;3.25;;;;;;;8.42;100.00;94761.09;1032882;28;20249;-49
2021/05/05 01:31:25;;;;;;;4.72;3.10;;;;;;;8.43;100.00;94756.69;1028866;28;20270;-49
2021/05/05 01:31:57;;;;;;;5.72;3.78;;;;;;;8.42;100.00;94760.28;1024900;28;20255;-49
2021/05/05 01:32:28;;;;;;;4.30;3.00;;;;;;;8.40;100.00;94764.75;1032832;28;20250;-50
2021/05/05 01:32:59;;;;;;;6.00;3.67;;;;;;;8.39;100.00;94766.56;1024907;28;20243;-47
2021/05/05 01:33:30;;;;;;;5.47;3.55;;;;;;;8.39;100.00;94771.78;1032796;28;20328;-48
2021/05/05 01:34:01;;;;;;;5.22;3.13;;;;;;;8.39;100.00;94769.16;1032856;28;20014;-51
2021/05/05 01:34:33;;;;;;;5.38;3.33;;;;;;;8.42;100.00;94773.31;1028845;28;20481;-49
2021/05/05 01:35:05;;;;;;;7.80;3.50;;;;;;;8.41;100.00;94769.00;1028860;28;20293;-49
2021/05/05 01:35:36;;;;;;;6.03;3.58;;;;;;;8.40;100.00;94773.41;1024876;28;20274;-49
2021/05/05 01:36:09;;;;;;;6.05;3.30;;;;;;;8.39;100.00;94766.56;1028918;28;20262;-49
2021/05/05 01:36:40;;;;;;;4.80;3.70;;;;;;;8.37;100.00;94765.81;1024804;28;20118;-50
2021/05/05 01:37:11;;;;;;;4.15;3.30;;;;;;;8.35;100.00;94768.59;1020856;29;20267;-48
2021/05/05 01:37:43;;;;;;;7.15;3.58;;;;;;;8.34;100.00;94759.06;1024983;29;20390;-49
2021/05/05 01:38:14;;;;;;;8.00;3.95;;;;;;;8.33;100.00;94762.66;1032836;28;20262;-49
2021/05/05 01:38:46;;;;;;;5.13;3.70;;;;;;;8.31;100.00;94761.91;1024747;29;20338;-50
2021/05/05 01:39:18;;;;;;;9.30;4.13;;;;;;;8.30;100.00;94768.13;1028836;28;20251;-48
2021/05/05 01:39:49;;;;;;;6.43;4.15;;;;;;;8.28;100.00;94774.41;1020950;28;20264;-49
2021/05/05 01:40:31;;;;;;;7.53;4.30;;;;;;;8.26;100.00;94764.09;1032785;28;20278;-51
2021/05/05 01:41:02;;;;;;;5.60;3.90;;;;;;;8.27;100.00;94765.75;1032920;28;20258;-50
2021/05/05 01:41:33;;;;;;;6.68;4.03;;;;;;;8.25;100.00;94767.66;1032871;28;20257;-50
2021/05/05 01:42:05;;;;;;;4.60;3.70;;;;;;;8.24;100.00;94768.63;1028914;28;20780;-47
2021/05/05 01:42:36;;;;;;;9.02;4.47;;;;;;;8.24;100.00;94758.19;1028708;28;20333;-49
2021/05/05 01:43:07;;;;;;;5.07;3.72;;;;;;;8.25;100.00;94753.78;1028947;28;20734;-50
2021/05/05 01:43:38;;;;;;;6.25;4.30;;;;;;;8.24;100.00;94767.75;1032572;28;20034;-48
2021/05/05 01:44:09;;;;;;;6.25;3.92;;;;;;;8.22;100.00;94759.22;1040952;28;20804;-49
2021/05/05 01:44:40;;;;;;;10.55;4.68;;;;;;;8.21;100.00;94763.63;1024753;29;20254;-49
2021/05/05 01:45:12;;;;;;;4.90;3.78;;;;;;;8.21;100.00;94765.41;1028586;28;20836;-48
2021/05/05 01:45:44;;;;;;;6.32;4.43;;;;;;;8.18;100.00;94764.72;1024825;28;20258;-52
2021/05/05 01:46:16;;;;;;;5.38;4.20;;;;;;;8.19;100.00;94768.16;1032835;28;20257;-49
2021/05/05 01:46:47;;;;;;;5.70;4.20;;;;;;;8.20;100.00;94769.78;1032786;28;20333;-49
2021/05/05 01:47:19;;;;;;;7.22;4.45;;;;;;;8.19;100.00;94770.75;1028896;28;20278;-49
2021/05/05 01:47:58;;;;;;;6.65;4.80;;;;;;;8.21;100.00;94768.03;1032810;28;20356;-48
2021/05/05 01:48:29;;;;;;;5.15;4.03;;;;;;;8.18;100.00;94767.31;1028860;28;20265;-49
2021/05/05 01:49:00;;;;;;;5.32;4.00;;;;;;;8.17;100.00;94768.25;1028735;28;20266;-47
2021/05/05 01:49:31;;;;;;;5.75;4.93;;;;;;;8.16;100.00;94769.22;1028810;28;20250;-49
2021/05/05 01:50:02;;;;;;;7.53;4.13;;;;;;;8.18;100.00;94772.53;1028812;28;20086;-48
2021/05/05 01:50:33;;;;;;;5.63;3.72;;;;;;;8.16;100.00;94764.00;1028749;28;20409;-50
2021/05/05 01:51:05;;;;;;;6.25;4.38;;;;;;;8.16;100.00;94771.00;1024824;28;20250;-49
2021/05/05 01:51:36;;;;;;;6.07;4.65;;;;;;;8.15;100.00;94766.75;1024861;29;20074;-49
2021/05/05 01:52:07;;;;;;;6.63;4.60;;;;;;;8.15;100.00;94771.94;1036920;28;20252;-46
2021/05/05 01:52:38;;;;;;;5.38;4.22;;;;;;;8.15;100.00;94764.94;1028856;28;20269;-49
2021/05/05 01:53:09;;;;;;;6.47;4.47;;;;;;;8.14;100.00;94767.66;1024680;28;20296;-48
2021/05/05 01:53:40;;;;;;;7.50;4.88;;;;;;;8.12;100.00;94761.75;1024692;28;20683;-51
2021/05/05 01:54:11;;;;;;;7.80;4.30;;;;;;;8.12;100.00;94762.56;1020889;29;20020;-49
2021/05/05 01:54:42;;;;;;;7.38;4.47;;;;;;;8.09;100.00;94755.00;1028842;28;20262;-49
2021/05/05 01:55:13;;;;;;;7.75;4.90;;;;;;;8.08;100.00;94753.34;1028522;28;20361;-50
2021/05/05 01:55:44;;;;;;;6.28;4.40;;;;;;;8.09;100.00;94756.75;1024951;28;20027;-51
2021/05/05 01:56:15;;;;;;;7.40;4.68;;;;;;;8.05;100.00;94747.53;1024864;28;20102;-50
2021/05/05 01:56:46;;;;;;;5.78;4.60;;;;;;;8.08;100.00;94752.53;1024855;28;20259;-49
2021/05/05 01:57:42;;;;;;;6.18;4.80;;;;;;;8.07;100.00;94751.69;1024766;28;20023;-49
2021/05/05 01:58:14;;;;;;;8.20;4.90;;;;;;;8.05;100.00;94753.59;1024815;29;20027;-49
2021/05/05 01:58:45;;;;;;;6.53;4.57;;;;;;;8.05;100.00;94752.75;1024834;29;20267;-49
2021/05/05 01:59:16;;;;;;;5.55;4.55;;;;;;;8.05;100.00;94757.97;1028672;28;20294;-50
2021/05/05 01:59:49;;;;;;;7.50;5.35;;;;;;;8.04;100.00;94751.94;1020804;29;20033;-49
2021/05/05 02:00:23;;;;;;;7.65;4.90;;;;;;;8.05;100.00;94755.34;1020694;29;20513;-50
2021/05/05 02:00:54;;;;;;;6.30;4.88;;;;;;;8.06;100.00;94763.06;1028909;28;20274;-49
2021/05/05 02:01:25;;;;;;;7.30;5.47;;;;;;;8.04;100.00;94754.53;1028665;28;20259;-48
2021/05/05 02:01:56;;;;;;;11.82;5.60;;;;;;;8.04;100.00;94753.72;1028879;28;20019;-50
2021/05/05 02:02:28;;;;;;;7.80;5.10;;;;;;;8.05;100.00;94763.19;1028762;28;20702;-49
2021/05/05 02:02:59;;;;;;;7.45;5.28;;;;;;;8.04;100.00;94759.75;1024889;28;20039;-48
2021/05/05 02:03:31;;;;;;;6.50;4.75;;;;;;;8.06;100.00;94751.81;1028553;28;21122;-47
2021/05/05 02:04:03;;;;;;;6.13;4.50;;;;;;;8.06;100.00;94752.63;1028798;28;20097;-49
2021/05/05 02:04:34;;;;;;;7.82;5.07;;;;;;;8.07;100.00;94756.91;1025376;28;20258;-48
2021/05/05 02:05:06;;;;;;;6.78;5.30;;;;;;;8.05;100.00;94757.97;1024844;29;20648;-49
2021/05/05 02:05:37;;;;;;;6.72;4.93;;;;;;;8.04;100.00;94753.72;1024845;29;20495;-49
2021/05/05 02:06:08;;;;;;;6.25;4.43;;;;;;;8.04;100.00;94758.94;1028863;28;20245;-51
2021/05/05 02:06:39;;;;;;;6.47;4.80;;;;;;;8.04;100.00;94756.31;1032860;28;20380;-48
2021/05/05 02:07:10;;;;;;;7.28;5.10;;;;;;;8.04;100.00;94748.50;1032842;28;20654;-49
2021/05/05 02:07:41;;;;;;;7.60;4.95;;;;;;;8.05;100.00;94757.97;1028676;28;20258;-48
2021/05/05 02:08:12;;;;;;;8.02;5.25;;;;;;;8.03;100.00;94752.88;1024857;28;20047;-50
2021/05/05 02:08:43;;;;;;;6.22;5.00;;;;;;;8.04;100.00;94741.50;1028908;28;20750;-48
2021/05/05 02:09:14;;;;;;;8.13;4.45;;;;;;;8.03;100.00;94754.66;1028756;28;20571;-49
2021/05/05 02:09:45;;;;;;;6.03;4.88;;;;;;;8.02;100.00;94753.00;1028723;28;20258;-48
2021/05/05 02:10:17;;;;;;;7.57;5.03;;;;;;;8.03;100.00;94749.44;1032949;28;20289;-49
2021/05/05 02:10:48;;;;;;;7.38;4.85;;;;;;;8.02;100.00;94747.78;1020763;28;20095;-50
2021/05/05 02:11:20;;;;;;;8.07;5.07;;;;;;;8.02;100.00;94748.63;1040857;28;20314;-49
2021/05/05 02:11:50;;;;;;;8.73;5.10;;;;;;;8.01;100.00;94748.72;1024763;28;20516;-48
2021/05/05 02:12:22;;;;;;;6.68;5.07;;;;;;;7.98;100.00;94750.63;1032767;28;20353;-48
2021/05/05 02:12:53;;;;;;;6.85;4.60;;;;;;;7.98;100.00;94748.03;1032884;28;20076;-49
2021/05/05 02:13:24;;;;;;;7.63;5.00;;;;;;;7.96;100.00;94747.31;1032740;28;20250;-49
2021/05/05 02:13:55;;;;;;;6.38;5.03;;;;;;;7.96;100.00;94755.16;1024552;28;20568;-48
2021/05/05 02:14:26;;;;;;;8.63;5.13;;;;;;;7.97;100.00;94748.97;1028735;28;20250;-49
2021/05/05 02:14:58;;;;;;;6.55;5.00;;;;;;;8.00;100.00;94758.34;1020754;28;20377;-49
2021/05/05 02:15:29;;;;;;;7.43;5.55;;;;;;;8.00;100.00;94752.31;1024733;29;20263;-50
2021/05/05 02:16:00;;;;;;;6.55;4.95;;;;;;;8.00;100.00;94749.69;1032731;28;20293;-50
2021/05/05 02:16:31;;;;;;;6.65;5.30;;;;;;;8.01;100.00;94759.16;1024794;29;20481;-50
2021/05/05 02:17:02;;;;;;;5.78;4.80;;;;;;;7.98;100.00;94758.47;1028844;28;20840;-50
2021/05/05 02:17:33;;;;;;;10.52;5.32;;;;;;;7.97;100.00;94742.94;1024794;29;20257;-49
2021/05/05 02:18:06;;;;;;;5.85;5.13;;;;;;;7.94;100.00;94746.63;1020757;28;20248;-49
2021/05/05 02:18:37;;;;;;;5.28;4.75;;;;;;;7.97;100.00;94748.97;1024738;29;20259;-49
2021/05/05 02:19:09;;;;;;;9.85;5.35;;;;;;;7.98;100.00;94740.19;1028868;28;20722;-47
2021/05/05 02:19:40;;;;;;;7.45;5.32;;;;;;;7.98;100.00;94749.81;1020846;28;20254;-49
2021/05/05 02:20:12;;;;;;;6.70;5.38;;;;;;;7.97;100.00;94741.13;1024803;28;20334;-49
2021/05/05 02:20:43;;;;;;;7.43;5.07;;;;;;;7.98;100.00;94745.41;1024677;29;20629;-48
2021/05/05 02:21:14;;;;;;;6.45;4.35;;;;;;;7.97;100.00;94740.31;1032797;28;20249;-48
2021/05/05 02:21:45;;;;;;;11.73;5.50;;;;;;;7.98;100.00;94742.00;1028823;28;20078;-49
2021/05/05 02:22:16;;;;;;;6.75;5.28;;;;;;;7.95;100.00;94737.84;1036697;28;20510;-49
2021/05/05 02:22:48;;;;;;;8.00;5.22;;;;;;;7.96;100.00;94743.91;1028792;28;20337;-49
2021/05/05 02:23:19;;;;;;;5.95;5.35;;;;;;;7.97;100.00;94735.94;1032724;28;20348;-48
2021/05/05 02:23:50;;;;;;;6.03;4.82;;;;;;;7.98;100.00;94737.59;1028563;28;20654;-48
2021/05/05 02:24:21;;;;;;;7.75;5.00;;;;;;;8.00;100.00;94737.47;1024681;28;20189;-52
2021/05/05 02:24:52;;;;;;;7.80;5.10;;;;;;;7.98;100.00;94737.59;1024812;29;20803;-51
2021/05/05 02:25:23;;;;;;;6.07;5.30;;;;;;;7.98;100.00;94731.56;1020908;29;20038;-51
2021/05/05 02:25:54;;;;;;;8.77;5.63;;;;;;;7.97;100.00;94735.09;1024899;28;20262;-50
2021/05/05 02:26:25;;;;;;;8.10;5.30;;;;;;;7.95;100.00;94735.22;1032705;28;20030;-51
2021/05/05 02:26:56;;;;;;;5.63;4.85;;;;;;;7.96;100.00;94733.47;1028819;28;20025;-49
2021/05/05 02:27:27;;;;;;;7.10;5.32;;;;;;;7.86;100.00;94716.88;1032161;28;20293;-50
2021/05/05 02:27:58;;;;;;;7.05;5.40;;;;;;;7.94;100.00;94736.19;1027456;28;20038;-49